Time,TemperatureF,DewpointF,PressureIn,WindDirection,WindDirectionDegrees,WindSpeedMPH,WindSpeedGustMPH,Humidity,HourlyPrecipIn,Conditions,Clouds,dailyrainin,SoftwareType,DateUTC
2013-03-15 00:01:00,51.6,48.6,30.10,SSW,212,4.0,5.0,89,0.00,,,0.00,meteohub,2013-03-14 10:01:00,
2013-03-15 00:07:00,51.4,48.4,30.10,WSW,237,3.0,5.0,89,0.00,,,0.00,meteohub,2013-03-14 10:07:00,
2013-03-15 00:12:00,51.4,48.4,30.10,WSW,250,3.0,4.0,89,0.00,,,0.00,meteohub,2013-03-14 10:12:00,
2013-03-15 00:17:00,51.3,48.4,30.10,WSW,255,1.0,4.0,90,0.00,,,0.00,meteohub,2013-03-14 10:17:00,
2013-03-15 00:22:00,50.5,48.0,30.10,West,277,3.0,3.0,91,0.00,,,0.00,meteohub,2013-03-14 10:22:00,
2013-03-15 00:27:00,50.4,47.8,30.09,WNW,282,2.0,3.0,91,0.00,,,0.00,meteohub,2013-03-14 10:27:00,
2013-03-15 00:33:00,50.5,48.0,30.10,WSW,241,4.0,4.0,91,0.00,,,0.00,meteohub,2013-03-14 10:33:00,
2013-03-15 00:38:00,50.5,48.0,30.09,SW,214,7.0,7.0,91,0.00,,,0.00,meteohub,2013-03-14 10:38:00,
2013-03-15 00:43:00,50.4,47.8,30.09,SSW,203,6.0,7.0,91,0.00,,,0.00,meteohub,2013-03-14 10:43:00,
2013-03-15 00:48:00,50.4,48.2,30.09,South,181,8.0,8.0,92,0.00,,,0.00,meteohub,2013-03-14 10:48:00,
2013-03-15 00:53:00,50.9,48.4,30.09,South,181,8.0,12.0,91,0.00,,,0.00,meteohub,2013-03-14 10:53:00,
2013-03-15 00:58:00,50.7,48.6,30.09,South,185,7.0,12.0,92,0.00,,,0.00,meteohub,2013-03-14 10:58:00,
2013-03-15 01:04:00,50.5,48.6,30.09,South,189,5.0,12.0,93,0.00,,,0.00,meteohub,2013-03-14 11:04:00,
2013-03-15 01:09:00,50.2,48.2,30.09,South,190,5.0,12.0,93,0.00,,,0.00,meteohub,2013-03-14 11:09:00,
2013-03-15 01:14:00,49.8,47.8,30.09,SW,214,12.0,12.0,93,0.00,,,0.00,meteohub,2013-03-14 11:14:00,
2013-03-15 01:19:00,49.3,46.4,30.08,SSW,212,15.0,15.0,90,0.00,,,0.00,meteohub,2013-03-14 11:19:00,
2013-03-15 01:24:00,48.9,46.4,30.08,SW,214,11.0,16.0,91,0.00,,,0.00,meteohub,2013-03-14 11:24:00,
2013-03-15 01:29:00,48.9,46.0,30.07,SSW,207,14.0,16.0,90,0.00,,,0.00,meteohub,2013-03-14 11:29:00,
2013-03-15 01:35:00,49.1,46.0,30.07,SSW,211,13.0,16.0,89,0.00,,,0.00,meteohub,2013-03-14 11:35:00,
2013-03-15 01:40:00,49.5,45.5,30.07,SSW,197,8.0,17.0,86,0.00,,,0.00,meteohub,2013-03-14 11:40:00,
2013-03-15 01:45:00,49.5,45.1,30.07,SSW,204,9.0,17.0,85,0.00,,,0.00,meteohub,2013-03-14 11:45:00,
2013-03-15 01:50:00,49.6,44.4,30.07,SSW,210,10.0,15.0,82,0.00,,,0.00,meteohub,2013-03-14 11:50:00,
2013-03-15 01:56:00,50.0,44.4,30.07,SW,214,11.0,15.0,81,0.00,,,0.00,meteohub,2013-03-14 11:56:00,
2013-03-15 02:01:00,50.2,43.9,30.07,SSW,208,10.0,15.0,79,0.00,,,0.00,meteohub,2013-03-14 12:01:00,
2013-03-15 02:06:00,50.4,43.7,30.07,SW,217,9.0,13.0,78,0.00,,,0.00,meteohub,2013-03-14 12:06:00,
2013-03-15 02:11:00,50.5,44.2,30.07,SW,215,12.0,13.0,79,0.00,,,0.00,meteohub,2013-03-14 12:11:00,
2013-03-15 02:16:00,50.7,45.1,30.07,SW,214,12.0,14.0,81,0.00,,,0.00,meteohub,2013-03-14 12:16:00,
2013-03-15 02:21:00,50.5,46.2,30.06,SSW,211,11.0,14.0,85,0.00,,,0.00,meteohub,2013-03-14 12:21:00,
2013-03-15 02:26:00,50.5,46.2,30.06,SSW,209,8.0,14.0,85,0.00,,,0.00,meteohub,2013-03-14 12:26:00,
2013-03-15 02:32:00,50.7,46.0,30.06,SW,215,11.0,14.0,84,0.00,,,0.00,meteohub,2013-03-14 12:32:00,
2013-03-15 02:37:00,50.7,45.7,30.07,SSW,203,7.0,13.0,83,0.00,,,0.00,meteohub,2013-03-14 12:37:00,
2013-03-15 02:42:00,51.3,45.3,30.07,SW,214,10.0,12.0,80,0.00,,,0.00,meteohub,2013-03-14 12:42:00,
2013-03-15 02:48:00,51.3,45.0,30.07,SSW,212,9.0,12.0,79,0.00,,,0.00,meteohub,2013-03-14 12:48:00,
2013-03-15 02:53:00,51.4,45.1,30.07,SSW,212,10.0,12.0,79,0.00,,,0.00,meteohub,2013-03-14 12:53:00,
2013-03-15 02:58:00,51.6,44.6,30.07,SSW,209,11.0,12.0,77,0.00,,,0.00,meteohub,2013-03-14 12:58:00,
2013-03-15 03:04:00,52.2,43.7,30.07,SSW,213,12.0,13.0,73,0.00,,,0.00,meteohub,2013-03-14 13:04:00,
2013-03-15 03:09:00,52.3,43.5,30.08,SW,217,14.0,14.0,72,0.00,,,0.00,meteohub,2013-03-14 13:09:00,
2013-03-15 03:14:00,52.0,44.6,30.08,SW,214,12.0,13.0,76,0.00,,,0.00,meteohub,2013-03-14 13:14:00,
2013-03-15 03:20:00,52.0,44.6,30.08,SSW,213,12.0,15.0,76,0.00,,,0.00,meteohub,2013-03-14 13:20:00,
2013-03-15 03:25:00,52.0,44.6,30.07,SW,214,9.0,15.0,76,0.00,,,0.00,meteohub,2013-03-14 13:25:00,
2013-03-15 03:30:00,52.0,45.0,30.08,SW,219,13.0,13.0,77,0.00,,,0.00,meteohub,2013-03-14 13:30:00,
2013-03-15 03:35:00,51.4,45.5,30.08,SW,217,10.0,13.0,80,0.00,,,0.00,meteohub,2013-03-14 13:35:00,
2013-03-15 03:40:00,51.3,45.3,30.08,SW,218,13.0,13.0,80,0.00,,,0.00,meteohub,2013-03-14 13:40:00,
2013-03-15 03:46:00,49.8,46.4,30.08,SW,219,8.0,14.0,88,0.00,,,0.00,meteohub,2013-03-14 13:46:00,
2013-03-15 03:51:00,47.7,45.7,30.08,SW,226,11.0,14.0,93,0.00,,,0.00,meteohub,2013-03-14 13:51:00,
2013-03-15 03:56:00,46.8,45.7,30.08,SW,225,11.0,14.0,96,0.00,,,0.00,meteohub,2013-03-14 13:56:00,
2013-03-15 04:02:00,46.8,46.0,30.08,SW,218,11.0,15.0,97,0.00,,,0.00,meteohub,2013-03-14 14:02:00,
2013-03-15 04:07:00,46.6,45.9,30.08,WSW,240,9.0,15.0,97,0.00,,,0.00,meteohub,2013-03-14 14:07:00,
2013-03-15 04:12:00,46.2,45.7,30.08,SSW,205,11.0,16.0,98,0.00,,,0.00,meteohub,2013-03-14 14:12:00,
2013-03-15 04:17:00,46.6,46.0,30.07,SSW,204,11.0,16.0,98,0.00,,,0.00,meteohub,2013-03-14 14:17:00,
2013-03-15 04:22:00,46.4,45.9,30.08,SW,219,11.0,15.0,98,0.00,,,0.00,meteohub,2013-03-14 14:22:00,
2013-03-15 04:27:00,46.0,45.5,30.08,SW,217,12.0,14.0,98,0.00,,,0.00,meteohub,2013-03-14 14:27:00,
2013-03-15 04:32:00,46.0,45.5,30.09,SW,228,12.0,14.0,98,0.00,,,0.00,meteohub,2013-03-14 14:32:00,
2013-03-15 04:37:00,46.0,45.5,30.09,SW,221,15.0,15.0,98,0.00,,,0.00,meteohub,2013-03-14 14:37:00,
2013-03-15 04:43:00,45.7,45.1,30.09,SW,235,15.0,16.0,98,0.00,,,0.00,meteohub,2013-03-14 14:43:00,
2013-03-15 04:48:00,45.3,44.8,30.09,SSW,212,14.0,18.0,98,0.00,,,0.00,meteohub,2013-03-14 14:48:00,
2013-03-15 04:53:00,45.3,44.8,30.09,SW,215,16.0,18.0,98,0.00,,,0.00,meteohub,2013-03-14 14:53:00,
2013-03-15 04:58:00,46.0,45.5,30.09,SW,221,13.0,18.0,98,0.00,,,0.00,meteohub,2013-03-14 14:58:00,
2013-03-15 05:03:00,46.4,45.9,30.09,SW,218,16.0,16.0,98,0.00,,,0.00,meteohub,2013-03-14 15:03:00,
2013-03-15 05:09:00,46.9,45.9,30.09,SW,222,16.0,16.0,96,0.00,,,0.00,meteohub,2013-03-14 15:09:00,
2013-03-15 05:14:00,47.1,45.7,30.09,SW,223,17.0,18.0,95,0.00,,,0.00,meteohub,2013-03-14 15:14:00,
2013-03-15 05:19:00,47.3,45.7,30.09,SW,215,14.0,18.0,94,0.00,,,0.00,meteohub,2013-03-14 15:19:00,
2013-03-15 05:24:00,47.5,45.9,30.09,SW,217,13.0,18.0,94,0.00,,,0.00,meteohub,2013-03-14 15:24:00,
2013-03-15 05:29:00,47.7,45.7,30.09,SSW,207,7.0,18.0,93,0.00,,,0.00,meteohub,2013-03-14 15:29:00,
2013-03-15 05:34:00,47.7,45.5,30.09,SSW,203,10.0,18.0,92,0.00,,,0.00,meteohub,2013-03-14 15:34:00,
2013-03-15 05:39:00,47.7,45.1,30.10,SSW,210,10.0,18.0,91,0.00,,,0.00,meteohub,2013-03-14 15:39:00,
2013-03-15 05:44:00,47.8,45.0,30.11,SW,214,12.0,15.0,90,0.00,,,0.00,meteohub,2013-03-14 15:44:00,
2013-03-15 05:49:00,47.8,45.0,30.11,SW,216,13.0,16.0,90,0.00,,,0.00,meteohub,2013-03-14 15:49:00,
2013-03-15 05:55:00,47.8,45.0,30.11,SW,217,15.0,17.0,90,0.00,,,0.00,meteohub,2013-03-14 15:55:00,
2013-03-15 06:00:00,47.7,45.1,30.12,SSW,208,13.0,17.0,91,0.00,,,0.00,meteohub,2013-03-14 16:00:00,
2013-03-15 06:05:00,47.5,44.8,30.12,SW,221,10.0,16.0,90,0.00,,,0.00,meteohub,2013-03-14 16:05:00,
2013-03-15 06:10:00,47.5,44.8,30.12,SW,227,12.0,18.0,90,0.00,,,0.00,meteohub,2013-03-14 16:10:00,
2013-03-15 06:15:00,47.1,44.6,30.12,SW,236,9.0,18.0,91,0.00,,,0.00,meteohub,2013-03-14 16:15:00,
2013-03-15 06:20:00,46.8,44.6,30.12,SSW,210,6.0,18.0,92,0.00,,,0.00,meteohub,2013-03-14 16:20:00,
2013-03-15 06:26:00,46.6,44.6,30.12,SW,214,12.0,17.0,93,0.00,,,0.00,meteohub,2013-03-14 16:26:00,
2013-03-15 06:31:00,46.6,45.0,30.12,SSW,212,12.0,17.0,94,0.00,,,0.00,meteohub,2013-03-14 16:31:00,
2013-03-15 06:36:00,46.6,44.4,30.13,SW,223,16.0,17.0,92,0.00,,,0.00,meteohub,2013-03-14 16:36:00,
2013-03-15 06:42:00,46.2,44.2,30.12,SW,219,13.0,17.0,93,0.00,,,0.00,meteohub,2013-03-14 16:42:00,
2013-03-15 06:47:00,46.2,44.6,30.12,SW,217,14.0,18.0,94,0.00,,,0.00,meteohub,2013-03-14 16:47:00,
2013-03-15 06:52:00,46.4,44.8,30.12,SW,218,16.0,18.0,94,0.00,,,0.00,meteohub,2013-03-14 16:52:00,
2013-03-15 06:57:00,46.6,45.0,30.12,SSW,208,8.0,18.0,94,0.00,,,0.00,meteohub,2013-03-14 16:57:00,
2013-03-15 07:03:00,46.6,45.1,30.12,SW,217,9.0,18.0,95,0.00,,,0.00,meteohub,2013-03-14 17:03:00,
2013-03-15 07:08:00,46.6,45.5,30.12,SW,215,9.0,17.0,96,0.00,,,0.00,meteohub,2013-03-14 17:08:00,
2013-03-15 07:13:00,46.6,45.9,30.12,SSW,212,11.0,15.0,97,0.00,,,0.00,meteohub,2013-03-14 17:13:00,
2013-03-15 07:19:00,46.6,45.9,30.12,SW,217,13.0,15.0,97,0.00,,,0.00,meteohub,2013-03-14 17:19:00,
2013-03-15 07:24:00,46.8,46.0,30.12,SW,222,14.0,16.0,97,0.00,,,0.00,meteohub,2013-03-14 17:24:00,
2013-03-15 07:29:00,46.8,45.3,30.13,SW,226,12.0,16.0,95,0.00,,,0.00,meteohub,2013-03-14 17:29:00,
2013-03-15 07:34:00,46.6,45.1,30.12,SW,228,10.0,16.0,95,0.00,,,0.00,meteohub,2013-03-14 17:34:00,
2013-03-15 07:39:00,46.2,45.5,30.12,SW,229,8.0,16.0,97,0.00,,,0.00,meteohub,2013-03-14 17:39:00,
2013-03-15 07:45:00,46.0,45.3,30.12,SW,221,11.0,16.0,97,0.00,,,0.00,meteohub,2013-03-14 17:45:00,
2013-03-15 07:50:00,46.0,45.0,30.12,WSW,238,8.0,14.0,96,0.00,,,0.00,meteohub,2013-03-14 17:50:00,
2013-03-15 07:55:00,46.0,45.3,30.12,SW,227,7.0,16.0,97,0.00,,,0.00,meteohub,2013-03-14 17:55:00,
2013-03-15 08:00:00,45.9,45.1,30.12,SW,224,11.0,16.0,97,0.00,,,0.00,meteohub,2013-03-14 18:00:00,
2013-03-15 08:06:00,46.0,45.3,30.12,SW,221,9.0,14.0,97,0.00,,,0.00,meteohub,2013-03-14 18:06:00,
2013-03-15 08:11:00,46.0,45.3,30.12,SW,220,12.0,13.0,97,0.00,,,0.00,meteohub,2013-03-14 18:11:00,
2013-03-15 08:17:00,45.9,45.1,30.13,WSW,245,11.0,13.0,97,0.00,,,0.00,meteohub,2013-03-14 18:17:00,
2013-03-15 08:22:00,46.0,44.6,30.13,SW,227,12.0,13.0,95,0.00,,,0.00,meteohub,2013-03-14 18:22:00,
2013-03-15 08:27:00,46.2,44.1,30.13,WSW,237,8.0,13.0,92,0.00,,,0.00,meteohub,2013-03-14 18:27:00,
2013-03-15 08:32:00,46.6,43.5,30.13,WSW,240,9.0,13.0,89,0.00,,,0.00,meteohub,2013-03-14 18:32:00,
2013-03-15 08:37:00,46.8,44.2,30.13,SW,219,13.0,17.0,91,0.00,,,0.00,meteohub,2013-03-14 18:37:00,
2013-03-15 08:42:00,46.9,44.8,30.13,SW,222,13.0,17.0,92,0.00,,,0.00,meteohub,2013-03-14 18:42:00,
2013-03-15 08:48:00,46.8,44.2,30.12,SW,231,8.0,17.0,91,0.00,,,0.00,meteohub,2013-03-14 18:48:00,
2013-03-15 08:53:00,46.6,44.4,30.12,SW,215,11.0,16.0,92,0.00,,,0.00,meteohub,2013-03-14 18:53:00,
2013-03-15 08:58:00,46.6,44.6,30.12,SW,217,12.0,14.0,93,0.00,,,0.00,meteohub,2013-03-14 18:58:00,
2013-03-15 09:04:00,46.6,44.6,30.11,SSW,210,11.0,14.0,93,0.00,,,0.00,meteohub,2013-03-14 19:04:00,
2013-03-15 09:09:00,46.6,45.0,30.12,SW,217,9.0,14.0,94,0.00,,,0.00,meteohub,2013-03-14 19:09:00,
2013-03-15 09:14:00,46.8,45.1,30.13,SW,222,8.0,14.0,94,0.00,,,0.00,meteohub,2013-03-14 19:14:00,
2013-03-15 09:20:00,46.8,45.1,30.13,WSW,248,17.0,17.0,94,0.00,,,0.00,meteohub,2013-03-14 19:20:00,
2013-03-15 09:25:00,47.1,45.5,30.13,WSW,255,20.0,20.0,94,0.00,,,0.00,meteohub,2013-03-14 19:25:00,
2013-03-15 09:30:00,47.3,45.7,30.14,West,263,15.0,23.0,94,0.00,,,0.00,meteohub,2013-03-14 19:30:00,
2013-03-15 09:35:00,47.3,45.7,30.14,WSW,252,21.0,23.0,94,0.00,,,0.00,meteohub,2013-03-14 19:35:00,
2013-03-15 09:40:00,47.1,45.5,30.13,WSW,250,11.0,26.0,94,0.00,,,0.00,meteohub,2013-03-14 19:40:00,
2013-03-15 09:46:00,47.5,45.9,30.14,WSW,244,8.0,26.0,94,0.00,,,0.00,meteohub,2013-03-14 19:46:00,
2013-03-15 09:51:00,47.8,45.9,30.14,SW,229,8.0,24.0,93,0.00,,,0.00,meteohub,2013-03-14 19:51:00,
2013-03-15 09:57:00,48.7,46.6,30.14,SW,232,15.0,18.0,92,0.00,,,0.00,meteohub,2013-03-14 19:57:00,
2013-03-15 10:02:00,48.7,45.7,30.14,SW,233,12.0,18.0,89,0.00,,,0.00,meteohub,2013-03-14 20:02:00,
2013-03-15 10:07:00,48.9,45.9,30.14,SW,221,13.0,18.0,89,0.00,,,0.00,meteohub,2013-03-14 20:07:00,
2013-03-15 10:12:00,49.8,46.9,30.14,SW,225,17.0,18.0,90,0.00,,,0.00,meteohub,2013-03-14 20:12:00,
2013-03-15 10:17:00,49.8,46.8,30.15,WSW,245,14.0,19.0,89,0.00,,,0.00,meteohub,2013-03-14 20:17:00,
2013-03-15 10:22:00,50.0,46.0,30.15,SW,230,13.0,19.0,86,0.00,,,0.00,meteohub,2013-03-14 20:22:00,
2013-03-15 10:27:00,50.0,46.6,30.15,SW,231,13.0,19.0,88,0.00,,,0.00,meteohub,2013-03-14 20:27:00,
2013-03-15 10:32:00,49.8,46.4,30.15,SW,228,10.0,18.0,88,0.00,,,0.00,meteohub,2013-03-14 20:32:00,
2013-03-15 10:38:00,50.4,46.6,30.15,WSW,249,13.0,16.0,87,0.00,,,0.00,meteohub,2013-03-14 20:38:00,
2013-03-15 10:43:00,50.4,43.2,30.15,West,278,11.0,19.0,76,0.00,,,0.00,meteohub,2013-03-14 20:43:00,
2013-03-15 10:48:00,50.5,43.5,30.16,West,269,14.0,21.0,77,0.00,,,0.00,meteohub,2013-03-14 20:48:00,
2013-03-15 10:53:00,50.5,42.6,30.16,WSW,257,18.0,21.0,74,0.00,,,0.00,meteohub,2013-03-14 20:53:00,
2013-03-15 10:59:00,50.5,42.3,30.15,WSW,257,18.0,23.0,73,0.00,,,0.00,meteohub,2013-03-14 20:59:00,
2013-03-15 11:04:00,50.5,41.5,30.15,WSW,250,11.0,23.0,71,0.00,,,0.00,meteohub,2013-03-14 21:04:00,
2013-03-15 11:09:00,50.9,41.9,30.15,WSW,248,13.0,22.0,71,0.00,,,0.00,meteohub,2013-03-14 21:09:00,
2013-03-15 11:14:00,51.1,41.7,30.15,WSW,256,14.0,23.0,70,0.00,,,0.00,meteohub,2013-03-14 21:14:00,
2013-03-15 11:19:00,51.1,41.7,30.15,West,263,24.0,24.0,70,0.00,,,0.00,meteohub,2013-03-14 21:19:00,
2013-03-15 11:24:00,51.1,42.8,30.16,West,264,16.0,24.0,73,0.00,,,0.00,meteohub,2013-03-14 21:24:00,
2013-03-15 11:29:00,51.3,43.0,30.15,WSW,252,22.0,26.0,73,0.00,,,0.00,meteohub,2013-03-14 21:29:00,
2013-03-15 11:34:00,51.4,43.7,30.15,SW,231,11.0,26.0,75,0.00,,,0.00,meteohub,2013-03-14 21:34:00,
2013-03-15 11:39:00,51.8,43.3,30.15,WSW,241,9.0,26.0,73,0.00,,,0.00,meteohub,2013-03-14 21:39:00,
2013-03-15 11:45:00,51.6,43.5,30.15,WSW,250,18.0,26.0,74,0.00,,,0.00,meteohub,2013-03-14 21:45:00,
2013-03-15 11:50:00,51.3,42.3,30.15,WSW,245,13.0,24.0,71,0.00,,,0.00,meteohub,2013-03-14 21:50:00,
2013-03-15 11:55:00,51.3,43.0,30.16,WSW,251,20.0,29.0,73,0.00,,,0.00,meteohub,2013-03-14 21:55:00,
2013-03-15 12:01:00,51.4,42.8,30.15,SW,224,11.0,29.0,72,0.00,,,0.00,meteohub,2013-03-14 22:01:00,
2013-03-15 12:06:00,51.1,41.7,30.15,WSW,244,11.0,29.0,70,0.00,,,0.00,meteohub,2013-03-14 22:06:00,
2013-03-15 12:11:00,50.7,42.4,30.15,SW,236,11.0,21.0,73,0.00,,,0.00,meteohub,2013-03-14 22:11:00,
2013-03-15 12:17:00,50.5,41.5,30.15,SW,229,11.0,16.0,71,0.00,,,0.00,meteohub,2013-03-14 22:17:00,
2013-03-15 12:22:00,50.5,41.5,30.14,SW,222,11.0,15.0,71,0.00,,,0.00,meteohub,2013-03-14 22:22:00,
2013-03-15 12:27:00,50.4,42.1,30.14,SW,226,10.0,15.0,73,0.00,,,0.00,meteohub,2013-03-14 22:27:00,
2013-03-15 12:32:00,50.4,41.7,30.15,SW,228,10.0,14.0,72,0.00,,,0.00,meteohub,2013-03-14 22:32:00,
2013-03-15 12:37:00,50.4,42.8,30.15,SW,230,12.0,14.0,75,0.00,,,0.00,meteohub,2013-03-14 22:37:00,
2013-03-15 12:42:00,50.2,42.6,30.15,SW,223,13.0,17.0,75,0.00,,,0.00,meteohub,2013-03-14 22:42:00,
2013-03-15 12:47:00,50.4,43.2,30.14,SW,225,14.0,17.0,76,0.00,,,0.00,meteohub,2013-03-14 22:47:00,
2013-03-15 12:53:00,50.5,42.6,30.14,SSW,213,13.0,18.0,74,0.00,,,0.00,meteohub,2013-03-14 22:53:00,
2013-03-15 12:58:00,50.7,42.8,30.14,SSW,212,10.0,18.0,74,0.00,,,0.00,meteohub,2013-03-14 22:58:00,
2013-03-15 13:03:00,51.1,42.4,30.15,SW,221,13.0,18.0,72,0.00,,,0.00,meteohub,2013-03-14 23:03:00,
2013-03-15 13:08:00,51.3,43.0,30.15,SW,220,14.0,17.0,73,0.00,,,0.00,meteohub,2013-03-14 23:08:00,
2013-03-15 13:14:00,51.4,44.1,30.16,SW,230,10.0,18.0,76,0.00,,,0.00,meteohub,2013-03-14 23:14:00,
2013-03-15 13:19:00,51.3,43.5,30.16,SW,222,22.0,22.0,75,0.00,,,0.00,meteohub,2013-03-14 23:19:00,
2013-03-15 13:24:00,51.1,43.7,30.15,SW,224,20.0,22.0,76,0.00,,,0.00,meteohub,2013-03-14 23:24:00,
2013-03-15 13:29:00,51.3,43.5,30.16,SW,229,12.0,24.0,75,0.00,,,0.00,meteohub,2013-03-14 23:29:00,
2013-03-15 13:34:00,51.3,43.3,30.16,SW,228,16.0,24.0,74,0.00,,,0.00,meteohub,2013-03-14 23:34:00,
2013-03-15 13:40:00,51.1,43.2,30.16,SW,231,18.0,24.0,74,0.00,,,0.00,meteohub,2013-03-14 23:40:00,
2013-03-15 13:45:00,50.7,43.2,30.16,SW,233,14.0,27.0,75,0.00,,,0.00,meteohub,2013-03-14 23:45:00,
2013-03-15 13:50:00,50.7,42.4,30.16,SW,231,12.0,27.0,73,0.00,,,0.00,meteohub,2013-03-14 23:50:00,
2013-03-15 13:56:00,50.7,43.2,30.16,SW,230,13.0,23.0,75,0.00,,,0.00,meteohub,2013-03-14 23:56:00,
2013-03-15 14:01:00,50.5,42.6,30.17,SW,232,10.0,20.0,74,0.00,,,0.00,meteohub,2013-03-15 00:01:00,
2013-03-15 14:06:00,50.7,43.2,30.17,WSW,243,10.0,20.0,75,0.00,,,0.00,meteohub,2013-03-15 00:06:00,
2013-03-15 14:12:00,50.7,43.2,30.17,SW,234,11.0,20.0,75,0.00,,,0.00,meteohub,2013-03-15 00:12:00,
2013-03-15 14:17:00,50.7,43.2,30.17,WSW,241,11.0,16.0,75,0.00,,,0.00,meteohub,2013-03-15 00:17:00,
2013-03-15 14:22:00,50.5,43.3,30.17,SW,223,11.0,15.0,76,0.00,,,0.00,meteohub,2013-03-15 00:22:00,
2013-03-15 14:27:00,50.5,43.3,30.17,SW,231,9.0,15.0,76,0.00,,,0.00,meteohub,2013-03-15 00:27:00,
2013-03-15 14:32:00,50.5,43.5,30.17,WSW,240,8.0,14.0,77,0.00,,,0.00,meteohub,2013-03-15 00:32:00,
2013-03-15 14:38:00,50.4,43.7,30.17,West,275,15.0,15.0,78,0.00,,,0.00,meteohub,2013-03-15 00:38:00,
2013-03-15 14:43:00,49.8,44.2,30.17,WNW,284,13.0,15.0,81,0.00,,,0.00,meteohub,2013-03-15 00:43:00,
2013-03-15 14:48:00,49.6,43.3,30.17,West,275,13.0,16.0,79,0.00,,,0.00,meteohub,2013-03-15 00:48:00,
2013-03-15 14:54:00,49.6,43.3,30.17,West,264,13.0,16.0,79,0.00,,,0.00,meteohub,2013-03-15 00:54:00,
2013-03-15 14:59:00,49.6,43.0,30.17,WSW,252,9.0,16.0,78,0.00,,,0.00,meteohub,2013-03-15 00:59:00,
2013-03-15 15:04:00,49.5,43.2,30.17,WSW,255,10.0,15.0,79,0.00,,,0.00,meteohub,2013-03-15 01:04:00,
2013-03-15 15:09:00,49.5,43.5,30.17,WSW,246,6.0,14.0,80,0.00,,,0.00,meteohub,2013-03-15 01:09:00,
2013-03-15 15:15:00,49.5,43.5,30.17,WSW,238,4.0,12.0,80,0.00,,,0.00,meteohub,2013-03-15 01:15:00,
2013-03-15 15:20:00,49.5,43.5,30.17,WSW,243,4.0,9.0,80,0.00,,,0.00,meteohub,2013-03-15 01:20:00,
2013-03-15 15:25:00,49.5,43.5,30.17,SW,231,3.0,9.0,80,0.00,,,0.00,meteohub,2013-03-15 01:25:00,
2013-03-15 15:31:00,49.5,43.2,30.17,SW,214,6.0,8.0,79,0.00,,,0.00,meteohub,2013-03-15 01:31:00,
2013-03-15 15:36:00,49.6,43.3,30.17,SSW,213,6.0,7.0,79,0.00,,,0.00,meteohub,2013-03-15 01:36:00,
2013-03-15 15:41:00,49.6,43.0,30.17,SSW,196,2.0,8.0,78,0.00,,,0.00,meteohub,2013-03-15 01:41:00,
2013-03-15 15:47:00,49.6,43.0,30.17,SSW,202,3.0,8.0,78,0.00,,,0.00,meteohub,2013-03-15 01:47:00,
2013-03-15 15:52:00,49.8,43.2,30.17,SSW,212,9.0,9.0,78,0.00,,,0.00,meteohub,2013-03-15 01:52:00,
2013-03-15 15:57:00,49.8,43.2,30.17,SSW,213,10.0,11.0,78,0.00,,,0.00,meteohub,2013-03-15 01:57:00,
2013-03-15 16:02:00,50.0,43.3,30.17,SW,217,12.0,12.0,78,0.00,,,0.00,meteohub,2013-03-15 02:02:00,
2013-03-15 16:07:00,50.2,43.5,30.18,SW,219,12.0,13.0,78,0.00,,,0.00,meteohub,2013-03-15 02:07:00,
2013-03-15 16:12:00,50.4,43.3,30.18,SW,226,14.0,14.0,77,0.00,,,0.00,meteohub,2013-03-15 02:12:00,
2013-03-15 16:17:00,50.4,43.3,30.18,SW,214,9.0,16.0,77,0.00,,,0.00,meteohub,2013-03-15 02:17:00,
2013-03-15 16:22:00,50.4,43.3,30.18,SW,228,10.0,16.0,77,0.00,,,0.00,meteohub,2013-03-15 02:22:00,
2013-03-15 16:28:00,50.4,43.7,30.18,SW,221,14.0,16.0,78,0.00,,,0.00,meteohub,2013-03-15 02:28:00,
2013-03-15 16:33:00,50.4,43.7,30.18,SW,219,15.0,18.0,78,0.00,,,0.00,meteohub,2013-03-15 02:33:00,
2013-03-15 16:38:00,50.5,43.9,30.19,SW,217,13.0,18.0,78,0.00,,,0.00,meteohub,2013-03-15 02:38:00,
2013-03-15 16:43:00,50.4,44.1,30.19,SSW,207,9.0,18.0,79,0.00,,,0.00,meteohub,2013-03-15 02:43:00,
2013-03-15 16:48:00,50.2,44.2,30.19,SW,221,15.0,17.0,80,0.00,,,0.00,meteohub,2013-03-15 02:48:00,
2013-03-15 16:53:00,50.4,44.8,30.19,SW,224,14.0,17.0,81,0.00,,,0.00,meteohub,2013-03-15 02:53:00,
2013-03-15 16:59:00,50.2,44.6,30.19,WSW,245,13.0,18.0,81,0.00,,,0.00,meteohub,2013-03-15 02:59:00,
2013-03-15 17:04:00,50.4,45.1,30.19,SW,233,15.0,18.0,82,0.00,,,0.00,meteohub,2013-03-15 03:04:00,
2013-03-15 17:09:00,50.2,45.0,30.19,SW,219,12.0,19.0,82,0.00,,,0.00,meteohub,2013-03-15 03:09:00,
2013-03-15 17:14:00,50.2,45.1,30.19,SW,217,14.0,20.0,83,0.00,,,0.00,meteohub,2013-03-15 03:14:00,
2013-03-15 17:19:00,49.8,45.1,30.19,SW,216,13.0,20.0,84,0.00,,,0.00,meteohub,2013-03-15 03:19:00,
2013-03-15 17:24:00,49.8,45.5,30.19,SW,217,14.0,18.0,85,0.00,,,0.00,meteohub,2013-03-15 03:24:00,
2013-03-15 17:30:00,49.6,45.3,30.19,SW,215,10.0,18.0,85,0.00,,,0.00,meteohub,2013-03-15 03:30:00,
2013-03-15 17:35:00,49.6,45.3,30.19,SSW,212,11.0,17.0,85,0.00,,,0.00,meteohub,2013-03-15 03:35:00,
2013-03-15 17:40:00,49.6,45.7,30.19,SSW,212,11.0,17.0,86,0.00,,,0.00,meteohub,2013-03-15 03:40:00,
2013-03-15 17:46:00,49.6,45.7,30.19,SSW,211,10.0,16.0,86,0.00,,,0.00,meteohub,2013-03-15 03:46:00,
2013-03-15 17:51:00,49.6,45.3,30.19,SSW,210,11.0,16.0,85,0.00,,,0.00,meteohub,2013-03-15 03:51:00,
2013-03-15 17:56:00,49.6,45.3,30.19,SSW,213,10.0,16.0,85,0.00,,,0.00,meteohub,2013-03-15 03:56:00,
2013-03-15 18:00:00,49.8,45.5,30.19,SSW,205,8.0,16.0,85,0.00,,,0.00,meteohub,2013-03-15 04:00:00,
2013-03-15 18:02:00,49.6,45.3,30.19,SSW,209,9.0,13.0,85,0.00,,,0.00,meteohub,2013-03-15 04:02:00,
2013-03-15 18:07:00,49.6,45.3,30.20,SSW,205,9.0,13.0,85,0.00,,,0.00,meteohub,2013-03-15 04:07:00,
2013-03-15 18:13:00,49.8,45.5,30.20,SSW,210,8.0,16.0,85,0.00,,,0.00,meteohub,2013-03-15 04:13:00,
2013-03-15 18:18:00,49.8,45.5,30.20,South,174,7.0,18.0,85,0.00,,,0.00,meteohub,2013-03-15 04:18:00,
2013-03-15 18:23:00,49.8,45.5,30.20,SSW,201,8.0,19.0,85,0.00,,,0.00,meteohub,2013-03-15 04:23:00,
2013-03-15 18:29:00,49.8,45.5,30.20,SSW,212,18.0,21.0,85,0.00,,,0.00,meteohub,2013-03-15 04:29:00,
2013-03-15 18:34:00,49.8,45.5,30.20,SW,216,19.0,21.0,85,0.00,,,0.00,meteohub,2013-03-15 04:34:00,
2013-03-15 18:39:00,49.8,45.5,30.20,SW,221,14.0,25.0,85,0.00,,,0.00,meteohub,2013-03-15 04:39:00,
2013-03-15 18:44:00,49.8,45.5,30.21,SW,226,18.0,25.0,85,0.00,,,0.00,meteohub,2013-03-15 04:44:00,
2013-03-15 18:49:00,49.8,45.5,30.21,SW,214,20.0,25.0,85,0.00,,,0.00,meteohub,2013-03-15 04:49:00,
2013-03-15 18:54:00,49.8,45.9,30.21,SW,220,20.0,25.0,86,0.00,,,0.00,meteohub,2013-03-15 04:54:00,
2013-03-15 19:00:00,49.8,45.9,30.21,SW,226,19.0,23.0,86,0.00,,,0.00,meteohub,2013-03-15 05:00:00,
2013-03-15 19:05:00,49.6,45.7,30.22,SW,229,18.0,23.0,86,0.00,,,0.00,meteohub,2013-03-15 05:05:00,
2013-03-15 19:10:00,49.5,45.7,30.22,SW,225,17.0,23.0,87,0.00,,,0.00,meteohub,2013-03-15 05:10:00,
2013-03-15 19:15:00,49.5,45.7,30.22,SW,222,18.0,23.0,87,0.00,,,0.00,meteohub,2013-03-15 05:15:00,
2013-03-15 19:21:00,49.5,45.7,30.22,SW,221,17.0,22.0,87,0.00,,,0.00,meteohub,2013-03-15 05:21:00,
2013-03-15 19:26:00,49.5,45.7,30.22,SW,232,15.0,22.0,87,0.00,,,0.00,meteohub,2013-03-15 05:26:00,
2013-03-15 19:32:00,49.5,45.7,30.22,SW,216,16.0,22.0,87,0.00,,,0.00,meteohub,2013-03-15 05:32:00,
2013-03-15 19:37:00,49.5,45.7,30.22,SW,216,15.0,19.0,87,0.00,,,0.00,meteohub,2013-03-15 05:37:00,
2013-03-15 19:42:00,49.6,45.9,30.22,SSW,212,12.0,19.0,87,0.00,,,0.00,meteohub,2013-03-15 05:42:00,
2013-03-15 19:47:00,49.5,45.7,30.22,SW,224,17.0,19.0,87,0.00,,,0.00,meteohub,2013-03-15 05:47:00,
2013-03-15 19:52:00,49.5,45.7,30.23,SW,221,15.0,19.0,87,0.00,,,0.00,meteohub,2013-03-15 05:52:00,
2013-03-15 19:57:00,49.5,46.0,30.23,SW,220,18.0,20.0,88,0.00,,,0.00,meteohub,2013-03-15 05:57:00,
2013-03-15 20:02:00,49.3,45.9,30.23,SW,214,16.0,20.0,88,0.00,,,0.00,meteohub,2013-03-15 06:02:00,
2013-03-15 20:08:00,49.3,45.9,30.23,SW,219,18.0,20.0,88,0.00,,,0.00,meteohub,2013-03-15 06:08:00,
2013-03-15 20:13:00,49.3,45.9,30.24,SW,216,16.0,20.0,88,0.00,,,0.00,meteohub,2013-03-15 06:13:00,
2013-03-15 20:18:00,49.3,46.2,30.23,SSW,212,15.0,19.0,89,0.00,,,0.00,meteohub,2013-03-15 06:18:00,
2013-03-15 20:24:00,49.3,46.2,30.23,SW,217,16.0,19.0,89,0.00,,,0.00,meteohub,2013-03-15 06:24:00,
2013-03-15 20:29:00,49.3,46.4,30.23,SW,227,17.0,19.0,90,0.00,,,0.00,meteohub,2013-03-15 06:29:00,
2013-03-15 20:34:00,49.1,46.2,30.24,SW,220,16.0,20.0,90,0.00,,,0.00,meteohub,2013-03-15 06:34:00,
2013-03-15 20:40:00,48.9,46.0,30.23,SW,224,19.0,21.0,90,0.00,,,0.00,meteohub,2013-03-15 06:40:00,
2013-03-15 20:45:00,48.9,46.0,30.23,SW,220,15.0,21.0,90,0.00,,,0.00,meteohub,2013-03-15 06:45:00,
2013-03-15 20:50:00,48.9,46.4,30.23,SW,214,15.0,21.0,91,0.00,,,0.00,meteohub,2013-03-15 06:50:00,
2013-03-15 20:55:00,48.9,46.4,30.23,SW,224,13.0,20.0,91,0.00,,,0.00,meteohub,2013-03-15 06:55:00,
2013-03-15 21:00:00,48.7,46.6,30.23,SW,223,16.0,20.0,92,0.00,,,0.00,meteohub,2013-03-15 07:00:00,
2013-03-15 21:05:00,48.7,46.6,30.23,SW,219,17.0,20.0,92,0.00,,,0.00,meteohub,2013-03-15 07:05:00,
2013-03-15 21:11:00,48.7,46.6,30.23,SW,231,18.0,19.0,92,0.00,,,0.00,meteohub,2013-03-15 07:11:00,
2013-03-15 21:16:00,48.7,46.6,30.23,SW,215,15.0,19.0,92,0.00,,,0.00,meteohub,2013-03-15 07:16:00,
2013-03-15 21:22:00,48.7,46.8,30.23,SW,223,17.0,19.0,93,0.00,,,0.00,meteohub,2013-03-15 07:22:00,
2013-03-15 21:27:00,48.7,46.8,30.24,SW,221,17.0,19.0,93,0.00,,,0.00,meteohub,2013-03-15 07:27:00,
2013-03-15 21:32:00,48.6,46.6,30.23,SW,216,13.0,19.0,93,0.00,,,0.00,meteohub,2013-03-15 07:32:00,
2013-03-15 21:38:00,48.6,46.6,30.23,SW,226,18.0,20.0,93,0.00,,,0.00,meteohub,2013-03-15 07:38:00,
2013-03-15 21:43:00,48.6,46.9,30.24,SW,222,19.0,20.0,94,0.00,,,0.00,meteohub,2013-03-15 07:43:00,
2013-03-15 21:48:00,48.6,46.9,30.24,SW,221,19.0,21.0,94,0.00,,,0.00,meteohub,2013-03-15 07:48:00,
2013-03-15 21:53:00,48.6,46.9,30.24,SW,221,20.0,21.0,94,0.00,,,0.00,meteohub,2013-03-15 07:53:00,
2013-03-15 21:58:00,48.6,46.9,30.24,SW,223,20.0,21.0,94,0.00,,,0.00,meteohub,2013-03-15 07:58:00,
2013-03-15 22:03:00,48.6,46.9,30.24,SW,231,15.0,21.0,94,0.00,,,0.00,meteohub,2013-03-15 08:03:00,
2013-03-15 22:08:00,48.6,46.9,30.24,SSW,213,14.0,21.0,94,0.00,,,0.00,meteohub,2013-03-15 08:08:00,
2013-03-15 22:14:00,48.6,46.9,30.24,SSW,212,16.0,21.0,94,0.00,,,0.00,meteohub,2013-03-15 08:14:00,
2013-03-15 22:19:00,48.6,46.9,30.24,SW,217,15.0,19.0,94,0.00,,,0.00,meteohub,2013-03-15 08:19:00,
2013-03-15 22:24:00,48.6,46.9,30.24,SW,214,17.0,19.0,94,0.00,,,0.00,meteohub,2013-03-15 08:24:00,
2013-03-15 22:30:00,48.6,46.9,30.24,SSW,213,15.0,19.0,94,0.00,,,0.00,meteohub,2013-03-15 08:30:00,
2013-03-15 22:35:00,48.6,46.9,30.24,SSW,210,13.0,17.0,94,0.00,,,0.00,meteohub,2013-03-15 08:35:00,
2013-03-15 22:40:00,48.6,46.9,30.24,SW,219,12.0,17.0,94,0.00,,,0.00,meteohub,2013-03-15 08:40:00,
2013-03-15 22:45:00,48.6,46.9,30.24,SSW,212,14.0,17.0,94,0.00,,,0.00,meteohub,2013-03-15 08:45:00,
2013-03-15 22:51:00,48.6,46.9,30.24,SW,216,12.0,17.0,94,0.00,,,0.00,meteohub,2013-03-15 08:51:00,
2013-03-15 22:56:00,48.6,46.9,30.24,SSW,212,9.0,17.0,94,0.00,,,0.00,meteohub,2013-03-15 08:56:00,
2013-03-15 23:01:00,48.6,46.9,30.25,SSW,213,13.0,16.0,94,0.00,,,0.00,meteohub,2013-03-15 09:01:00,
2013-03-15 23:06:00,48.6,46.9,30.24,SSW,212,14.0,17.0,94,0.00,,,0.00,meteohub,2013-03-15 09:06:00,
2013-03-15 23:12:00,48.6,46.9,30.25,SW,217,15.0,17.0,94,0.00,,,0.00,meteohub,2013-03-15 09:12:00,
2013-03-15 23:17:00,48.6,46.9,30.25,SW,214,16.0,19.0,94,0.00,,,0.00,meteohub,2013-03-15 09:17:00,
2013-03-15 23:22:00,48.7,47.1,30.25,SSW,213,12.0,19.0,94,0.00,,,0.00,meteohub,2013-03-15 09:22:00,
2013-03-15 23:27:00,48.7,47.1,30.25,SW,214,10.0,19.0,94,0.00,,,0.00,meteohub,2013-03-15 09:27:00,
2013-03-15 23:33:00,48.6,46.9,30.25,South,189,8.0,18.0,94,0.00,,,0.00,meteohub,2013-03-15 09:33:00,
2013-03-15 23:38:00,48.7,47.1,30.24,SSW,210,5.0,18.0,94,0.00,,,0.00,meteohub,2013-03-15 09:38:00,
2013-03-15 23:43:00,48.6,46.9,30.24,SSW,205,8.0,17.0,94,0.00,,,0.00,meteohub,2013-03-15 09:43:00,
2013-03-15 23:48:00,48.6,46.9,30.24,SW,214,11.0,15.0,94,0.00,,,0.00,meteohub,2013-03-15 09:48:00,
2013-03-15 23:53:00,48.6,46.9,30.24,SSW,206,5.0,14.0,94,0.00,,,0.00,meteohub,2013-03-15 09:53:00,
2013-03-15 23:59:00,48.7,47.1,30.24,SSW,196,4.0,14.0,94,0.00,,,0.00,meteohub,2013-03-15 09:59:00,